Time;durP1;ratioP1;P1;durP2;ratioP2;P2;SDS_P1;SDS_P2;PMS_P1;PMS_P2;Temp;Humidity;BMP_temperature;BMP_pressure;BME280_temperature;BME280_humidity;BME280_pressure;Samples;Min_cycle;Max_cycle;Signal;HPM_P1;HPM_P2
2024/02/28 00:01:31;;;;;;;;;;;3.60;99.90;;;3.90;67.01;100811.06;4943415;29;20307;-82
2024/02/28 00:03:59;;;;;;;;;;;3.50;99.90;;;3.91;66.65;100803.00;4932058;29;20302;-82
2024/02/28 00:06:28;;;;;;;;;;;3.50;99.90;;;3.92;66.00;100801.19;4961039;28;19926;-82
2024/02/28 00:08:55;;;;;;;;;;;3.50;99.90;;;3.89;66.06;100810.22;4951242;28;20340;-82
2024/02/28 00:11:22;;;;;;;;;;;3.50;99.90;;;3.84;66.36;100799.34;4926548;29;19931;-82
2024/02/28 00:13:49;;;;;;;;;;;3.40;99.90;;;3.85;66.65;100801.81;4961622;29;19927;-82
2024/02/28 00:16:17;;;;;;;;;;;3.40;99.90;;;3.86;66.24;100803.47;4961363;28;19926;-82
2024/02/28 00:18:44;;;;;;;;;;;3.40;99.90;;;3.86;66.55;100810.56;4961083;28;19926;-82
2024/02/28 00:21:11;;;;;;;;;;;3.40;99.90;;;3.83;66.59;100814.34;4944185;29;19933;-82
2024/02/28 00:23:40;;;;;;;;;;;3.40;99.90;;;3.82;66.48;100812.69;4942771;29;19927;-82
2024/02/28 00:26:07;;;;;;;;;;;3.40;99.90;;;3.79;66.72;100809.53;4942703;29;20380;-82
2024/02/28 00:28:34;;;;;;;;;;;3.40;99.90;;;3.76;66.80;100802.78;4960504;28;19926;-82
2024/02/28 00:31:02;;;;;;;;;;;3.40;99.90;;;3.77;67.04;100801.78;4943369;29;20303;-81
2024/02/28 00:33:29;;;;;;;;;;;3.40;99.90;;;3.77;66.90;100803.59;4943318;29;20029;-82
2024/02/28 00:35:56;;;;;;;;;;;3.40;99.90;;;3.78;67.31;100800.81;4960267;29;19930;-81
2024/02/28 00:38:23;;;;;;;;;;;3.40;99.90;;;3.78;67.23;100797.34;4927536;29;19927;-82
2024/02/28 00:40:52;;;;;;;;;;;3.40;99.90;;;3.79;67.21;100796.34;4960706;29;19927;-82
2024/02/28 00:43:19;;;;;;;;;;;3.30;99.90;;;3.78;66.72;100800.81;4959793;29;19933;-82
2024/02/28 00:45:46;;;;;;;;;;;3.40;99.90;;;3.83;66.61;100800.31;4958845;28;19937;-82
2024/02/28 00:48:13;;;;;;;;;;;3.40;99.90;;;3.80;66.78;100795.34;4943172;29;19926;-82
2024/02/28 00:50:40;;;;;;;;;;;3.40;99.90;;;3.75;66.37;100792.38;4958209;28;19931;-82
2024/02/28 00:53:08;;;;;;;;;;;3.40;99.90;;;3.72;66.70;100796.16;4941719;29;19933;-82
2024/02/28 00:55:35;;;;;;;;;;;3.40;99.90;;;3.68;66.89;100796.63;4942840;29;20014;-82
2024/02/28 00:58:05;;;;;;;;;;;3.30;99.90;;;3.71;66.76;100793.66;4927515;29;20417;-82
2024/02/28 01:00:32;;;;;;;;;;;3.30;99.90;;;3.67;66.66;100798.44;4942512;29;19926;-82
2024/02/28 01:02:59;;;;;;;;;;;3.30;99.90;;;3.64;66.40;100795.28;4942551;29;19926;-82
2024/02/28 01:05:26;;;;;;;;;;;3.20;99.90;;;3.60;66.49;100798.25;4960019;29;19930;-82
2024/02/28 01:07:53;;;;;;;;;;;3.20;99.90;;;3.57;67.10;100803.84;4943033;29;20001;-82
2024/02/28 01:10:21;;;;;;;;;;;3.20;99.90;;;3.58;66.67;100810.78;4960050;29;19926;-82
2024/02/28 01:12:48;;;;;;;;;;;3.20;99.90;;;3.56;67.28;100807.47;4960225;29;19926;-82
2024/02/28 01:15:17;;;;;;;;;;;3.20;99.90;;;3.55;67.61;100808.44;4959776;28;20404;-82
2024/02/28 01:17:44;;;;;;;;;;;3.40;99.90;;;3.57;67.88;100811.75;4958434;28;20029;-82
2024/02/28 01:20:12;;;;;;;;;;;3.20;99.90;;;3.59;68.32;100808.97;4925207;29;19933;-82
2024/02/28 01:22:39;;;;;;;;;;;3.20;99.90;;;3.59;68.78;100804.50;4948780;29;19926;-82
2024/02/28 01:25:07;;;;;;;;;;;3.30;99.90;;;3.60;68.85;100800.88;4941620;29;19958;-82
2024/02/28 01:27:34;;;;;;;;;;;3.30;99.90;;;3.62;69.24;100811.28;4958575;29;20474;-82
2024/02/28 01:30:02;;;;;;;;;;;3.30;99.90;;;3.66;69.44;100817.06;4942997;29;19930;-82
2024/02/28 01:32:31;;;;;;;;;;;3.30;99.90;;;3.68;69.02;100828.28;4942576;29;19927;-82
2024/02/28 01:35:02;;;;;;;;;;;3.30;99.90;;;3.69;69.49;100833.41;4958390;29;19926;-82
2024/02/28 01:37:29;;;;;;;;;;;3.40;99.90;;;3.73;69.72;100828.63;4959903;29;19977;-82
2024/02/28 01:39:56;;;;;;;;;;;3.40;99.90;;;3.74;69.54;100828.47;4940624;29;19935;-82
2024/02/28 01:42:23;;;;;;;;;;;3.40;99.90;;;3.75;69.24;100824.84;4939228;29;19935;-82
2024/02/28 01:44:51;;;;;;;;;;;3.40;99.90;;;3.75;70.06;100821.38;4904638;29;19927;-82
2024/02/28 01:47:18;;;;;;;;;;;3.40;99.90;;;3.73;70.05;100812.81;4943926;29;19933;-82
2024/02/28 01:49:48;;;;;;;;;;;3.40;99.90;;;3.74;70.29;100807.38;4940853;29;19927;-82
2024/02/28 01:52:15;;;;;;;;;;;3.40;99.90;;;3.77;70.55;100806.25;4940775;29;20384;-82
2024/02/28 01:54:43;;;;;;;;;;;3.50;99.90;;;3.78;70.98;100806.06;4941473;29;19933;-82
2024/02/28 01:57:10;;;;;;;;;;;3.50;99.90;;;3.79;70.90;100798.97;4942439;29;19927;-82
2024/02/28 01:59:37;;;;;;;;;;;3.50;99.90;;;3.82;71.56;100799.50;4943369;29;19931;-82
2024/02/28 02:02:05;;;;;;;;;;;3.60;99.90;;;3.87;71.28;100799.03;4944782;29;19978;-82
2024/02/28 02:04:32;;;;;;;;;;;3.60;99.90;;;3.87;71.21;100796.38;4943288;29;20365;-82
2024/02/28 02:07:01;;;;;;;;;;;3.60;99.90;;;3.86;71.23;100790.28;4942989;29;20453;-82
2024/02/28 02:09:28;;;;;;;;;;;3.70;99.90;;;3.86;71.05;100792.94;4944333;29;19927;-82
2024/02/28 02:11:55;;;;;;;;;;;3.60;99.90;;;3.87;71.18;100791.13;4958675;29;19927;-82
2024/02/28 02:14:22;;;;;;;;;;;3.60;99.90;;;3.88;71.37;100793.59;4940243;29;19935;-82
2024/02/28 02:16:49;;;;;;;;;;;3.60;99.90;;;3.87;71.34;100793.75;4944040;29;19978;-82
2024/02/28 02:19:16;;;;;;;;;;;3.60;99.90;;;3.86;71.34;100795.56;4926891;29;20367;-82
2024/02/28 02:21:50;;;;;;;;;;;3.60;99.90;;;3.87;71.51;100801.66;4943273;29;20456;-82
2024/02/28 02:24:18;;;;;;;;;;;3.60;99.90;;;3.88;71.58;100806.78;4943786;29;20391;-82
2024/02/28 02:26:46;;;;;;;;;;;3.70;99.90;;;3.89;71.36;100799.69;4944103;29;19930;-82
2024/02/28 02:29:13;;;;;;;;;;;3.70;99.90;;;3.91;71.91;100805.63;4944027;29;19985;-82
2024/02/28 02:31:41;;;;;;;;;;;3.70;99.90;;;3.95;72.27;100804.31;4943056;29;19974;-82
2024/02/28 02:34:08;;;;;;;;;;;3.70;99.90;;;3.95;72.13;100796.41;4942329;29;20053;-81
2024/02/28 02:36:35;;;;;;;;;;;3.70;99.90;;;3.97;72.22;100796.25;4938684;29;20400;-82
2024/02/28 02:39:03;;;;;;;;;;;3.80;99.90;;;4.00;72.44;100790.63;4907831;29;20412;-82
2024/02/28 02:41:32;;;;;;;;;;;3.80;99.90;;;4.02;72.32;100792.16;4923227;29;20319;-82
2024/02/28 02:43:59;;;;;;;;;;;3.80;99.90;;;4.05;72.88;100796.25;4939202;29;20340;-82
2024/02/28 02:46:26;;;;;;;;;;;3.80;99.90;;;4.06;72.55;100796.13;4942369;29;19962;-82
2024/02/28 02:48:53;;;;;;;;;;;3.80;99.90;;;4.09;73.14;100800.22;4943288;29;19927;-82
2024/02/28 02:51:21;;;;;;;;;;;3.80;99.90;;;4.10;73.05;100791.34;4958869;29;19958;-82
2024/02/28 02:53:48;;;;;;;;;;;3.90;99.90;;;4.09;73.10;100801.06;4943781;29;20319;-82
2024/02/28 02:56:16;;;;;;;;;;;3.90;99.90;;;4.11;73.56;100809.66;4942937;29;19978;-82
2024/02/28 02:58:45;;;;;;;;;;;3.90;99.90;;;4.14;73.05;100809.31;4942607;29;19927;-82
2024/02/28 03:01:12;;;;;;;;;;;4.00;99.90;;;4.17;73.42;100812.66;4941589;29;19931;-82
2024/02/28 03:03:39;;;;;;;;;;;4.00;99.90;;;4.19;73.40;100824.69;4941101;29;20002;-82
2024/02/28 03:06:07;;;;;;;;;;;4.00;99.90;;;4.21;73.71;100821.91;4941390;29;19927;-80
2024/02/28 03:08:34;;;;;;;;;;;4.00;99.90;;;4.21;73.87;100819.25;4940328;29;20025;-82
2024/02/28 03:11:04;;;;;;;;;;;4.00;99.90;;;4.22;73.92;100810.34;4940903;29;19958;-82
2024/02/28 03:13:31;;;;;;;;;;;4.00;99.90;;;4.23;73.96;100823.38;4941282;29;19926;-82
2024/02/28 03:16:00;;;;;;;;;;;4.00;99.90;;;4.24;74.11;100825.03;4943081;29;19951;-82
2024/02/28 03:18:27;;;;;;;;;;;4.00;99.90;;;4.25;74.18;100820.59;4941312;29;19945;-82
2024/02/28 03:20:54;;;;;;;;;;;4.10;99.90;;;4.27;74.41;100815.97;4942802;29;19962;-82
2024/02/28 03:23:22;;;;;;;;;;;4.10;99.90;;;4.29;74.67;100821.91;4942282;29;19962;-81
2024/02/28 03:25:49;;;;;;;;;;;4.10;99.90;;;4.30;75.29;100818.28;4941065;29;19927;-82
2024/02/28 03:28:16;;;;;;;;;;;4.10;99.90;;;4.31;75.08;100823.41;4941452;29;19927;-82
2024/02/28 03:30:43;;;;;;;;;;;4.10;99.90;;;4.33;75.03;100817.94;4940776;29;19958;-82
2024/02/28 03:33:12;;;;;;;;;;;4.20;99.90;;;4.34;75.38;100816.97;4957518;28;19927;-82
2024/02/28 03:35:39;;;;;;;;;;;4.40;99.90;;;4.35;75.51;100826.56;4942905;29;20085;-82
2024/02/28 03:38:06;;;;;;;;;;;4.30;99.90;;;4.34;75.30;100816.97;4942306;29;20867;-82
2024/02/28 03:40:33;;;;;;;;;;;4.20;99.90;;;4.34;75.80;100819.59;4941594;29;20406;-82
2024/02/28 03:43:01;;;;;;;;;;;4.40;99.90;;;4.35;75.64;100822.09;4940665;29;20022;-82
2024/02/28 03:45:28;;;;;;;;;;;4.20;99.90;;;4.39;75.91;100825.22;4968768;28;19937;-82
2024/02/28 03:47:56;;;;;;;;;;;4.40;99.90;;;4.42;75.73;100832.00;4978311;28;20391;-82
2024/02/28 03:50:24;;;;;;;;;;;4.30;99.90;;;4.45;75.84;100827.22;4961911;28;19957;-82
2024/02/28 03:52:54;;;;;;;;;;;4.30;99.90;;;4.46;75.79;100826.25;4978341;28;19929;-82
2024/02/28 03:55:21;;;;;;;;;;;4.30;99.90;;;4.46;76.02;100828.06;4962655;28;20030;-82
2024/02/28 03:57:51;;;;;;;;;;;4.30;99.90;;;4.48;75.78;100828.72;4978156;28;20008;-82
2024/02/28 04:00:19;;;;;;;;;;;4.40;99.90;;;4.47;76.21;100838.44;4960899;28;19933;-82
2024/02/28 04:02:46;;;;;;;;;;;4.40;99.90;;;4.49;76.32;100836.50;4962252;28;19973;-82
2024/02/28 04:05:13;;;;;;;;;;;4.30;99.90;;;4.51;76.28;100839.78;4977996;28;19926;-82
2024/02/28 04:07:42;;;;;;;;;;;4.40;99.90;;;4.49;76.04;100843.56;4961875;28;19966;-82
2024/02/28 04:10:11;;;;;;;;;;;4.40;99.90;;;4.47;76.88;100834.97;4961235;28;19980;-82
2024/02/28 04:12:38;;;;;;;;;;;4.30;99.90;;;4.48;76.61;100840.09;4961769;28;19926;-82
2024/02/28 04:15:06;;;;;;;;;;;4.30;99.90;;;4.44;76.99;100838.78;4958813;29;19926;-82
2024/02/28 04:17:33;;;;;;;;;;;4.30;99.90;;;4.45;77.07;100842.25;4910000;29;19973;-82
2024/02/28 04:20:04;;;;;;;;;;;4.30;99.90;;;4.39;77.57;100844.56;4924433;29;19977;-82
2024/02/28 04:22:31;;;;;;;;;;;4.30;99.90;;;4.43;77.34;100846.84;4956309;29;19927;-82
2024/02/28 04:25:00;;;;;;;;;;;4.30;99.90;;;4.47;77.47;100841.09;4924836;29;19933;-82
2024/02/28 04:27:27;;;;;;;;;;;4.30;99.90;;;4.51;77.15;100841.59;4956224;28;19933;-82
2024/02/28 04:29:54;;;;;;;;;;;4.30;99.90;;;4.51;77.13;100846.88;4941126;29;19927;-82
2024/02/28 04:32:22;;;;;;;;;;;4.40;99.90;;;4.51;77.49;100844.25;4941666;29;20436;-82
2024/02/28 04:34:49;;;;;;;;;;;4.40;99.90;;;4.50;77.69;100838.13;4942050;29;19958;-82
2024/02/28 04:37:16;;;;;;;;;;;4.40;99.90;;;4.52;77.92;100838.78;4924320;29;19933;-82
2024/02/28 04:39:43;;;;;;;;;;;4.40;99.90;;;4.53;77.74;100835.16;4923989;29;19926;-82
2024/02/28 04:42:12;;;;;;;;;;;4.40;99.90;;;4.56;77.69;100842.75;4953253;29;19933;-82
2024/02/28 04:44:39;;;;;;;;;;;4.50;99.90;;;4.57;77.99;100844.41;4960014;28;19933;-82
2024/02/28 04:47:06;;;;;;;;;;;4.50;99.90;;;4.60;77.94;100852.00;4958552;29;20005;-82
2024/02/28 04:49:34;;;;;;;;;;;4.50;99.90;;;4.63;77.88;100850.84;4942328;29;20021;-82
2024/02/28 04:52:01;;;;;;;;;;;4.50;99.90;;;4.68;77.91;100842.44;4960038;29;19933;-82
2024/02/28 04:54:28;;;;;;;;;;;4.50;99.90;;;4.69;78.04;100844.94;4959397;29;20014;-81
2024/02/28 04:56:55;;;;;;;;;;;4.60;99.90;;;4.70;78.15;100851.03;4960101;29;19926;-82
2024/02/28 04:59:23;;;;;;;;;;;4.60;99.90;;;4.71;78.24;100858.78;4960267;29;20458;-82
2024/02/28 05:01:51;;;;;;;;;;;4.60;99.90;;;4.72;78.30;100865.72;4959064;29;19958;-82
2024/02/28 05:04:19;;;;;;;;;;;4.60;99.90;;;4.73;78.16;100863.91;4926473;29;20388;-82
2024/02/28 05:06:46;;;;;;;;;;;4.60;99.90;;;4.74;78.72;100857.66;4955518;28;20412;-82
2024/02/28 05:09:17;;;;;;;;;;;4.70;99.90;;;4.75;78.64;100859.31;4942495;29;19927;-82
2024/02/28 05:11:45;;;;;;;;;;;4.90;99.90;;;4.75;78.59;100869.88;4941929;29;19933;-82
2024/02/28 05:14:12;;;;;;;;;;;4.70;99.90;;;4.78;78.93;100864.25;4946556;29;19927;-82
2024/02/28 05:16:41;;;;;;;;;;;4.70;99.90;;;4.79;78.71;100863.28;4930684;29;20002;-81
2024/02/28 05:19:09;;;;;;;;;;;4.70;99.90;;;4.79;78.83;100864.09;4935696;29;19927;-81
2024/02/28 05:21:41;;;;;;;;;;;4.70;99.90;;;4.77;78.96;100857.31;4923625;29;19927;-81
2024/02/28 05:24:09;;;;;;;;;;;4.70;99.90;;;4.77;78.73;100868.69;4956075;29;19926;-81
2024/02/28 05:26:36;;;;;;;;;;;4.80;99.90;;;4.79;78.94;100858.81;4946079;29;19934;-81
2024/02/28 05:29:05;;;;;;;;;;;4.70;99.90;;;4.74;79.06;100876.16;4957512;28;20021;-81
2024/02/28 05:31:33;;;;;;;;;;;4.70;99.90;;;4.70;79.39;100874.81;4925104;29;19962;-81
2024/02/28 05:34:02;;;;;;;;;;;4.70;99.90;;;4.72;79.51;100880.75;4939596;29;19955;-81
2024/02/28 05:36:30;;;;;;;;;;;4.70;99.90;;;4.69;79.32;100879.28;4939334;29;20013;-81
2024/02/28 05:39:00;;;;;;;;;;;4.70;99.90;;;4.73;79.64;100890.31;4927116;29;19966;-82
2024/02/28 05:41:28;;;;;;;;;;;4.70;99.90;;;4.74;79.49;100895.47;4959220;29;19989;-83
2024/02/28 05:43:56;;;;;;;;;;;4.70;99.90;;;4.75;79.52;100906.84;4959097;29;19955;-83
2024/02/28 05:46:23;;;;;;;;;;;4.70;99.90;;;4.74;79.59;100906.03;4957955;28;19977;-83
2024/02/28 05:48:51;;;;;;;;;;;4.70;99.90;;;4.78;79.64;100903.88;4941349;29;20029;-83
2024/02/28 05:51:20;;;;;;;;;;;4.70;99.90;;;4.79;79.44;100902.91;4944415;29;20312;-82
2024/02/28 05:53:47;;;;;;;;;;;4.80;99.90;;;4.82;79.45;100903.38;4938824;29;20025;-82
2024/02/28 05:56:15;;;;;;;;;;;4.80;99.90;;;4.85;79.60;100910.19;4936466;29;20040;-83
2024/02/28 05:58:43;;;;;;;;;;;4.80;99.90;;;4.85;79.42;100912.81;4958094;28;19934;-84
2024/02/28 06:01:11;;;;;;;;;;;4.80;99.90;;;4.81;79.46;100916.75;4944974;28;20025;-86
2024/02/28 06:03:38;;;;;;;;;;;4.80;99.90;;;4.83;79.95;100915.63;4921539;29;19969;-85
2024/02/28 06:06:07;;;;;;;;;;;4.80;99.90;;;4.87;79.94;100918.75;4943434;29;19927;-85
2024/02/28 06:08:41;;;;;;;;;;;4.80;99.90;;;4.85;79.44;100911.00;4957346;29;19926;-85
2024/02/28 06:11:09;;;;;;;;;;;4.80;99.90;;;4.82;79.89;100918.41;4951620;29;19927;-84
2024/02/28 06:13:37;;;;;;;;;;;4.70;99.90;;;4.83;79.94;100915.63;4938821;29;19927;-85
2024/02/28 06:16:04;;;;;;;;;;;4.80;99.90;;;4.86;79.90;100914.47;4939773;29;19935;-83
2024/02/28 06:18:33;;;;;;;;;;;4.80;99.90;;;4.88;79.89;100920.41;4922502;29;19927;-83
2024/02/28 06:20:59;;;;;;;;;;;4.80;99.90;;;4.87;79.41;100924.88;4922177;29;20406;-84
2024/02/28 06:23:27;;;;;;;;;;;4.90;99.90;;;4.90;79.71;100926.38;4929151;29;19961;-84
2024/02/28 06:25:57;;;;;;;;;;;4.80;99.90;;;4.89;79.95;100937.94;4956494;28;19926;-84
2024/02/28 06:28:24;;;;;;;;;;;4.80;99.90;;;4.91;79.98;100930.66;4957623;28;19926;-84
2024/02/28 06:30:51;;;;;;;;;;;4.80;99.90;;;4.94;79.72;100930.34;4958571;29;19927;-84
2024/02/28 06:33:18;;;;;;;;;;;4.90;99.90;;;4.94;79.82;100935.63;4957714;28;19926;-85
2024/02/28 06:35:46;;;;;;;;;;;4.80;99.90;;;4.96;79.89;100938.91;4929973;29;19933;-83
2024/02/28 06:38:13;;;;;;;;;;;4.80;99.90;;;4.90;79.46;100948.34;4961358;28;20335;-82
2024/02/28 06:40:41;;;;;;;;;;;4.80;99.90;;;4.89;79.87;100951.16;4928359;29;19930;-82
2024/02/28 06:43:09;;;;;;;;;;;4.80;99.90;;;4.89;80.11;100951.97;4966530;28;19926;-82
2024/02/28 06:45:37;;;;;;;;;;;4.80;99.90;;;4.86;80.12;100956.75;4969140;29;20384;-82
2024/02/28 06:48:05;;;;;;;;;;;4.80;99.90;;;4.85;80.38;100966.50;4946369;29;19933;-82
2024/02/28 06:50:32;;;;;;;;;;;4.80;99.90;;;4.88;80.27;100963.53;4961117;29;19973;-82
2024/02/28 06:53:00;;;;;;;;;;;4.80;99.90;;;4.92;80.15;100971.94;4953327;29;19934;-82
2024/02/28 06:55:27;;;;;;;;;;;4.80;99.90;;;4.90;80.55;100966.84;4943771;29;19927;-82
2024/02/28 06:57:56;;;;;;;;;;;4.80;99.90;;;4.91;80.43;100970.28;4925800;29;19933;-82
2024/02/28 07:00:25;;;;;;;;;;;4.90;99.90;;;4.92;80.52;100977.22;4954366;29;20371;-82
2024/02/28 07:02:53;;;;;;;;;;;4.90;99.90;;;4.93;80.44;100978.91;4942838;29;19933;-82
2024/02/28 07:05:20;;;;;;;;;;;4.90;99.90;;;4.87;80.45;100980.34;4926626;29;19926;-82
2024/02/28 07:07:47;;;;;;;;;;;4.80;99.90;;;4.86;80.97;100989.28;4930111;29;19927;-82
2024/02/28 07:10:14;;;;;;;;;;;4.80;99.90;;;4.92;81.08;100987.81;4938831;29;19926;-82
2024/02/28 07:12:41;;;;;;;;;;;4.90;99.90;;;4.91;80.93;100989.63;4924826;29;19979;-83
2024/02/28 07:15:09;;;;;;;;;;;4.90;99.90;;;4.88;81.04;100992.59;4943097;29;19927;-83
2024/02/28 07:17:38;;;;;;;;;;;4.80;99.90;;;4.89;80.71;100999.53;4925922;29;20017;-83
2024/02/28 07:20:06;;;;;;;;;;;4.90;99.90;;;4.88;80.82;100994.41;4943526;29;19934;-83
2024/02/28 07:22:34;;;;;;;;;;;4.90;99.90;;;4.94;81.01;100995.59;4924862;29;20017;-83
2024/02/28 07:25:01;;;;;;;;;;;4.90;99.90;;;4.98;80.67;100997.75;4909957;29;19931;-82
2024/02/28 07:27:28;;;;;;;;;;;4.90;99.90;;;4.98;80.68;101000.41;4926574;29;19926;-82
2024/02/28 07:29:55;;;;;;;;;;;4.90;99.90;;;4.99;80.77;100994.13;4910015;29;19978;-83
2024/02/28 07:32:23;;;;;;;;;;;4.90;99.90;;;5.02;81.15;100998.22;4925366;29;19974;-82
2024/02/28 07:34:52;;;;;;;;;;;5.00;99.90;;;5.01;80.76;100994.75;4942656;29;19939;-83
2024/02/28 07:37:19;;;;;;;;;;;5.00;99.90;;;5.02;80.35;100996.41;4942612;29;19958;-82
2024/02/28 07:39:47;;;;;;;;;;;5.00;99.90;;;5.04;80.67;100997.09;4942377;29;19927;-83
2024/02/28 07:42:15;;;;;;;;;;;5.00;99.90;;;5.11;80.46;100991.97;4924989;29;19948;-83
2024/02/28 07:44:43;;;;;;;;;;;5.10;99.90;;;5.07;80.76;100998.56;4910358;29;19927;-83
2024/02/28 07:47:10;;;;;;;;;;;5.10;99.90;;;5.07;80.43;100995.94;4941996;29;19927;-82
2024/02/28 07:49:38;;;;;;;;;;;5.10;99.90;;;5.06;80.25;101000.41;4925183;29;19926;-83
2024/02/28 07:52:07;;;;;;;;;;;5.10;99.90;;;5.05;80.88;100995.28;4940838;29;19927;-83
2024/02/28 07:54:34;;;;;;;;;;;5.10;99.90;;;5.07;80.82;100996.75;4942885;29;19927;-83
2024/02/28 07:57:01;;;;;;;;;;;5.10;99.90;;;5.12;80.81;100997.13;4925393;29;19978;-83
2024/02/28 07:59:28;;;;;;;;;;;5.10;99.90;;;5.15;80.75;100996.78;4946713;29;19926;-82
2024/02/28 08:01:55;;;;;;;;;;;5.20;99.90;;;5.11;80.58;100999.91;4944668;29;19965;-83
2024/02/28 08:04:23;;;;;;;;;;;5.10;99.90;;;5.12;80.54;101002.41;4961923;29;19974;-83
2024/02/28 08:06:51;;;;;;;;;;;5.20;99.90;;;5.12;80.50;101004.19;4961517;28;20379;-83
2024/02/28 08:09:19;;;;;;;;;;;5.10;99.90;;;5.14;80.78;101003.06;4961647;28;19930;-82
2024/02/28 08:11:47;;;;;;;;;;;5.20;99.90;;;5.20;80.51;101012.16;4961047;29;19932;-82
2024/02/28 08:14:14;;;;;;;;;;;5.20;99.90;;;5.22;80.76;101018.13;4944680;29;19985;-82
2024/02/28 08:16:41;;;;;;;;;;;5.20;99.90;;;5.21;80.46;101028.84;4943716;29;20021;-83
2024/02/28 08:19:08;;;;;;;;;;;5.20;99.90;;;5.24;80.49;101026.72;4944186;29;20343;-83
2024/02/28 08:21:36;;;;;;;;;;;5.20;99.90;;;5.28;80.29;101027.22;4928156;29;19969;-83
2024/02/28 08:24:04;;;;;;;;;;;5.20;99.90;;;5.32;80.07;101032.03;4961507;29;20009;-82
2024/02/28 08:26:33;;;;;;;;;;;5.30;99.90;;;5.20;79.61;101027.19;4943612;29;19937;-83
2024/02/28 08:29:00;;;;;;;;;;;5.30;99.90;;;5.15;79.99;101032.97;4927653;29;19927;-83
2024/02/28 08:31:27;;;;;;;;;;;5.20;99.90;;;5.13;80.36;101030.50;4927368;29;19982;-82
2024/02/28 08:33:55;;;;;;;;;;;5.20;99.90;;;5.20;80.63;101025.38;4944291;29;19968;-82
2024/02/28 08:36:22;;;;;;;;;;;5.30;99.90;;;5.23;80.61;101029.53;4961867;29;19927;-82
2024/02/28 08:38:51;;;;;;;;;;;5.30;99.90;;;5.24;80.37;101033.81;4944452;29;19927;-83
2024/02/28 08:41:19;;;;;;;;;;;5.30;99.90;;;5.30;80.48;101033.16;4944158;29;19926;-83
2024/02/28 08:43:47;;;;;;;;;;;5.30;99.90;;;5.20;79.95;101037.78;4961479;28;19950;-83
2024/02/28 08:46:16;;;;;;;;;;;5.30;99.90;;;5.12;80.31;101036.78;4961817;29;19926;-83
2024/02/28 08:48:45;;;;;;;;;;;5.30;99.90;;;5.21;80.24;101034.97;4943869;29;19927;-83
2024/02/28 08:51:13;;;;;;;;;;;5.30;99.90;;;5.24;79.82;101042.56;4944464;29;19933;-83
2024/02/28 08:53:40;;;;;;;;;;;5.40;99.90;;;5.12;79.73;101042.06;4943969;29;20351;-83
2024/02/28 08:56:07;;;;;;;;;;;5.30;99.90;;;5.15;79.90;101046.19;4945035;29;19933;-83
2024/02/28 08:58:34;;;;;;;;;;;5.20;99.90;;;5.23;80.23;101046.22;4963212;28;19968;-83
2024/02/28 09:01:04;;;;;;;;;;;5.30;99.90;;;5.24;79.72;101049.69;4927106;29;19937;-83
2024/02/28 09:03:31;;;;;;;;;;;5.30;99.90;;;5.25;79.82;101051.34;4946397;29;20367;-83
2024/02/28 09:05:58;;;;;;;;;;;5.30;99.90;;;5.30;79.87;101047.22;4931386;29;19926;-82
2024/02/28 09:08:25;;;;;;;;;;;5.40;99.90;;;5.33;79.99;101059.28;4943023;29;19959;-83
2024/02/28 09:10:53;;;;;;;;;;;5.50;99.90;;;5.30;80.07;101063.06;4924360;29;19926;-83
2024/02/28 09:13:20;;;;;;;;;;;5.50;99.90;;;5.33;80.42;101069.88;4939854;29;20439;-83
2024/02/28 09:15:48;;;;;;;;;;;5.40;99.90;;;5.30;80.20;101070.19;4923620;29;19926;-83
2024/02/28 09:18:17;;;;;;;;;;;5.70;99.90;;;5.35;80.13;101066.06;4941154;29;20289;-83
2024/02/28 09:20:45;;;;;;;;;;;5.40;99.90;;;5.34;80.11;101071.53;4923272;29;19926;-83
2024/02/28 09:23:12;;;;;;;;;;;5.60;99.90;;;5.34;80.23;101071.53;4941376;29;19977;-83
2024/02/28 09:25:40;;;;;;;;;;;5.50;99.90;;;5.41;80.52;101061.94;4892475;29;20383;-83
2024/02/28 09:28:08;;;;;;;;;;;5.60;99.90;;;5.45;80.22;101062.44;4941486;29;20431;-83
2024/02/28 09:30:35;;;;;;;;;;;5.60;99.90;;;5.49;79.94;101061.97;4940727;29;19994;-83
2024/02/28 09:33:02;;;;;;;;;;;5.60;99.90;;;5.54;80.29;101057.00;4924362;29;19931;-83
2024/02/28 09:35:31;;;;;;;;;;;5.70;99.90;;;5.54;79.74;101062.28;4923678;29;19934;-83
2024/02/28 09:37:58;;;;;;;;;;;5.70;99.90;;;5.58;79.87;101058.34;4940686;29;19927;-83
2024/02/28 09:40:25;;;;;;;;;;;5.70;99.90;;;5.61;79.60;101063.31;4940943;29;19927;-83
2024/02/28 09:42:54;;;;;;;;;;;5.70;99.90;;;5.52;79.17;101059.00;4923744;29;19931;-83
2024/02/28 09:45:24;;;;;;;;;;;5.70;99.90;;;5.51;79.17;101061.78;4920225;29;19962;-83
2024/02/28 09:47:51;;;;;;;;;;;5.70;99.90;;;5.51;79.29;101054.66;4920540;29;19927;-83
2024/02/28 09:50:19;;;;;;;;;;;5.70;99.90;;;5.56;79.56;101054.19;4923508;29;19927;-83
2024/02/28 09:52:49;;;;;;;;;;;5.70;99.90;;;5.66;79.31;101062.78;4911682;29;19970;-82
2024/02/28 09:55:16;;;;;;;;;;;5.80;99.90;;;5.56;78.71;101060.31;4938562;29;19927;-82
2024/02/28 09:57:44;;;;;;;;;;;5.80;99.90;;;5.54;79.28;101054.34;4927474;29;19954;-83
2024/02/28 10:00:12;;;;;;;;;;;5.80;99.90;;;5.66;79.10;101061.00;4919634;29;19933;-83
2024/02/28 10:02:40;;;;;;;;;;;5.80;99.90;;;5.71;79.04;101043.78;4920717;29;20018;-83
2024/02/28 10:05:08;;;;;;;;;;;5.90;99.90;;;5.78;79.30;101047.44;4919277;29;19978;-83
2024/02/28 10:07:37;;;;;;;;;;;5.90;99.90;;;5.70;78.70;101042.94;4920910;29;20033;-83
2024/02/28 10:10:07;;;;;;;;;;;5.90;99.90;;;5.76;78.96;101036.16;4888001;29;19927;-83
2024/02/28 10:12:35;;;;;;;;;;;5.90;99.90;;;5.68;78.34;101045.78;4920500;29;19927;-83
2024/02/28 10:15:02;;;;;;;;;;;5.90;99.90;;;5.62;78.74;101041.16;4920431;29;19931;-83
2024/02/28 10:17:29;;;;;;;;;;;5.90;99.90;;;5.63;78.85;101050.72;4921836;29;20444;-83
2024/02/28 10:19:59;;;;;;;;;;;5.80;99.90;;;5.71;78.84;101051.72;4925099;29;19928;-83
2024/02/28 10:22:26;;;;;;;;;;;5.90;99.90;;;5.75;78.79;101039.81;4924297;29;20396;-83
2024/02/28 10:24:58;;;;;;;;;;;5.90;99.90;;;5.57;78.10;101051.41;4925710;29;19927;-83
2024/02/28 10:27:26;;;;;;;;;;;5.90;99.90;;;5.60;78.74;101051.03;4924421;29;19989;-83
2024/02/28 10:29:54;;;;;;;;;;;5.90;99.90;;;5.76;78.67;101057.34;4925134;29;19927;-83
2024/02/28 10:32:21;;;;;;;;;;;5.90;99.90;;;5.77;78.66;101056.38;4924652;29;19934;-82
2024/02/28 10:34:51;;;;;;;;;;;6.00;99.90;;;5.82;78.63;101059.34;4925152;29;19927;-83
2024/02/28 10:37:18;;;;;;;;;;;6.00;99.90;;;5.94;78.51;101060.69;4939204;29;19934;-83
2024/02/28 10:39:46;;;;;;;;;;;6.10;99.90;;;5.92;78.07;101067.97;4924772;29;19983;-83
2024/02/28 10:42:15;;;;;;;;;;;6.10;99.90;;;6.01;78.11;101069.63;4923142;29;19927;-83
2024/02/28 10:44:44;;;;;;;;;;;6.20;99.90;;;6.04;78.21;101073.75;4923991;29;19927;-83
2024/02/28 10:47:12;;;;;;;;;;;6.20;99.90;;;6.08;77.75;101075.06;4925177;29;20406;-83
2024/02/28 10:49:39;;;;;;;;;;;6.30;99.90;;;6.04;77.72;101079.03;4924149;29;19927;-83
2024/02/28 10:52:07;;;;;;;;;;;6.30;99.90;;;6.13;77.41;101075.41;4923176;29;19935;-83
2024/02/28 10:54:35;;;;;;;;;;;6.30;99.90;;;6.19;77.13;101075.53;4924982;29;19931;-83
2024/02/28 10:57:03;;;;;;;;;;;6.40;99.90;;;6.23;76.87;101080.53;4908024;29;19931;-83
2024/02/28 10:59:31;;;;;;;;;;;6.50;99.90;;;6.22;76.89;101070.94;4923455;29;19955;-83
2024/02/28 11:01:59;;;;;;;;;;;6.50;99.90;;;6.21;76.51;101066.63;4923840;29;20005;-83
2024/02/28 11:04:27;;;;;;;;;;;6.50;99.90;;;6.17;76.58;101074.06;4923684;29;20499;-83
2024/02/28 11:06:56;;;;;;;;;;;6.50;99.90;;;6.19;76.98;101064.94;4940221;29;19995;-82
2024/02/28 11:09:25;;;;;;;;;;;6.50;99.90;;;6.29;77.05;101074.53;4907686;29;19927;-83
2024/02/28 11:11:53;;;;;;;;;;;6.60;99.90;;;6.37;76.89;101080.66;4908203;29;19982;-82
2024/02/28 11:14:22;;;;;;;;;;;6.60;99.90;;;6.44;76.92;101075.50;4923055;29;19974;-80
2024/02/28 11:17:01;;;;;;;;;;;6.70;99.90;;;6.48;76.61;101071.53;4924427;29;19934;-81
2024/02/28 11:19:30;;;;;;;;;;;6.70;99.90;;;6.55;76.73;101071.69;4924892;29;19928;-81
2024/02/28 11:21:58;;;;;;;;;;;6.80;99.90;;;6.47;75.60;101075.19;4926788;29;19931;-81
2024/02/28 11:24:26;;;;;;;;;;;6.80;99.90;;;6.38;75.41;101076.19;4930159;29;19927;-81
2024/02/28 11:26:54;;;;;;;;;;;6.80;99.90;;;6.39;75.96;101068.09;4928681;29;19931;-80